ADDS METAR Data INFO
IDs: Format: Raw Decoded Include TAF

Data at: 0353 UTC 18 Oct 2017

KE80 180335Z AUTO 12004KT 10SM CLR 15/00 A3021 RMK AO2 T01461004
KE80 180315Z AUTO 00000KT 10SM CLR 16/M03 A3021 RMK AO2 T01571029
KE80 180255Z AUTO 00000KT 10SM CLR 16/M01 A3022 RMK AO2 T01581007
KE80 180235Z AUTO 00000KT 10SM CLR 16/M02 A3022 RMK AO2 T01581024
KE80 180215Z AUTO 00000KT 10SM CLR 15/M01 A3022 RMK AO2 T01541012
KE80 180155Z AUTO 00000KT 10SM CLR 16/M01 A3021 RMK AO2 T01581008
KE80 180135Z AUTO 00000KT 10SM CLR 17/M02 A3021 RMK AO2 T01731019
KE80 180115Z AUTO 00000KT 10SM CLR 18/M02 A3021 RMK AO2 T01761016
KE80 180055Z AUTO 00000KT 10SM CLR 19/M01 A3020 RMK AO2 T01861012
KE80 180035Z AUTO 00000KT 10SM CLR 21/M02 A3019 RMK AO2 T02051019
KE80 180015Z AUTO 00000KT 10SM CLR 22/M04 A3019 RMK AO2 T02221037
KE80 172355Z AUTO 00000KT 10SM CLR 23/M05 A3019 RMK AO2 T02281048 10241 20187
KE80 172335Z AUTO 00000KT 10SM CLR 24/M04 A3019 RMK AO2 T02351041
KE80 172315Z AUTO 00000KT 10SM CLR 24/M04 A3019 RMK AO2 T02371039
KE80 172255Z AUTO 00000KT 10SM CLR 24/M04 A3020 RMK AO2 T02401043
KE80 172235Z AUTO 00000KT 10SM CLR 24/M04 A3021 RMK AO2 T02401042
KE80 172215Z AUTO 00000KT 10SM CLR 24/M05 A3021 RMK AO2 T02351050
KE80 172155Z AUTO 00000KT 10SM CLR 24/M04 A3022 RMK AO2 T02351037
KE80 172135Z AUTO 10003KT 10SM CLR 24/M04 A3023 RMK AO2 T02401044
KE80 172115Z AUTO 10004KT 10SM CLR 23/M04 A3023 RMK AO2 T02341036
KE80 172055Z AUTO 00000KT 10SM CLR 23/M03 A3023 RMK AO2 T02311031
KE80 172035Z AUTO 08004KT 10SM CLR 23/M01 A3025 RMK AO2 T02321013
KE80 172015Z AUTO 15004KT 10SM CLR 22/M01 A3025 RMK AO2 T02231013
KE80 171955Z AUTO 00000KT 10SM CLR 22/M02 A3027 RMK AO2 T02171016
KE80 171935Z AUTO 00000KT 10SM CLR 21/M01 A3028 RMK AO2 T02111013
KE80 171915Z AUTO 00000KT 10SM CLR 21/M01 A3030 RMK AO2 T02091011
KE80 171855Z AUTO 00000KT 10SM CLR 20/00 A3032 RMK AO2 T02041005
KE80 171835Z AUTO 00000KT 10SM CLR 20/00 A3033 RMK AO2 T01981005
KE80 171815Z AUTO 00000KT 10SM CLR 19/M01 A3034 RMK AO2 T01931009
KE80 171755Z AUTO 00000KT 10SM CLR 19/M01 A3035 RMK AO2 T01851008 10185 20038
KE80 171735Z AUTO 10003KT 10SM CLR 18/M01 A3036 RMK AO2 T01811012
KE80 171715Z AUTO 00000KT 10SM CLR 17/M01 A3037 RMK AO2 T01681010
KE80 171655Z AUTO 00000KT 10SM CLR 16/M01 A3037 RMK AO2 T01551015
KE80 171635Z AUTO 00000KT 10SM CLR 15/M01 A3038 RMK AO2 T01531013
KE80 171615Z AUTO 06004KT 10SM CLR 15/M01 A3038 RMK AO2 T01501008
KE80 171555Z AUTO 00000KT 10SM CLR 14/M02 A3038 RMK AO2 T01411018
KE80 171535Z AUTO 03004KT 10SM CLR 13/M03 A3038 RMK AO2 T01321026
KE80 171515Z AUTO 02004KT 10SM CLR 12/M03 A3038 RMK AO2 T01241032
KE80 171455Z AUTO 02003KT 10SM CLR 11/M02 A3037 RMK AO2 T01081020
KE80 171435Z AUTO 00000KT 10SM CLR 10/M01 A3037 RMK AO2 T00981013
KE80 171415Z AUTO 00000KT 10SM CLR 08/M01 A3036 RMK AO2 T00761012
KE80 171355Z AUTO 31004KT 10SM CLR 06/00 A3036 RMK AO2 T00551002
KE80 171335Z AUTO 32003KT 10SM CLR 04/M01 A3035 RMK AO2 T00391007
KE80 171315Z AUTO 30003KT 10SM CLR 05/M01 A3035 RMK AO2 T00451010
KE80 171255Z AUTO 31004KT 10SM CLR 04/00 A3035 RMK AO2 T00431005
KE80 171235Z AUTO 00000KT 10SM CLR 05/M01 A3035 RMK AO2 T00481006
KE80 171215Z AUTO 36003KT 10SM CLR 05/M01 A3035 RMK AO2 T00501010
KE80 171155Z AUTO 00000KT 10SM CLR 05/M01 A3035 RMK AO2 T00511013 10109 20046
KE80 171135Z AUTO 33004KT 10SM CLR 05/M01 A3035 RMK AO2 T00501014
KE80 171115Z AUTO 32005KT 10SM CLR 06/M01 A3035 RMK AO2 T00551015
KE80 171055Z AUTO 31005KT 10SM CLR 06/M01 A3034 RMK AO2 T00551015
KE80 171035Z AUTO 31006KT 10SM CLR 05/M01 A3033 RMK AO2 T00531007
KE80 171015Z AUTO 31006KT 10SM CLR 06/00 A3033 RMK AO2 T00591003
KE80 170955Z AUTO 00000KT 10SM CLR 06/M01 A3033 RMK AO2 T00621006
KE80 170935Z AUTO 31004KT 10SM CLR 06/00 A3034 RMK AO2 T00561001
KE80 170915Z AUTO 02003KT 10SM CLR 07/M01 A3035 RMK AO2 T00741015
KE80 170855Z AUTO 04005KT 10SM CLR 08/M02 A3035 RMK AO2 T00761016
KE80 170835Z AUTO 04005KT 10SM CLR 09/M02 A3035 RMK AO2 T00861021
KE80 170815Z AUTO 04004KT 10SM CLR 07/M01 A3036 RMK AO2 T00711008
KE80 170755Z AUTO 00000KT 10SM CLR 07/00 A3035 RMK AO2 T00711003
KE80 170735Z AUTO 00000KT 10SM CLR 10/M01 A3035 RMK AO2 T00991008
KE80 170715Z AUTO 00000KT 10SM CLR 07/00 A3035 RMK AO2 T00700001
KE80 170655Z AUTO 00000KT 10SM CLR 11/M01 A3035 RMK AO2 T01091010
KE80 170635Z AUTO 00000KT 10SM CLR 09/00 A3036 RMK AO2 T00851002
KE80 170615Z AUTO 19004KT 10SM CLR 10/00 A3035 RMK AO2 T00951001
KE80 170555Z AUTO 19005KT 10SM CLR 09/00 A3035 RMK AO2 T00901001 10206 20090 402200008
KE80 170535Z AUTO 15003KT 10SM CLR 11/M01 A3036 RMK AO2 T01051013
KE80 170515Z AUTO 00000KT 10SM CLR 11/M01 A3036 RMK AO2 T01121012
KE80 170455Z AUTO 00000KT 10SM CLR 12/M02 A3036 RMK AO2 T01181022
KE80 170435Z AUTO 11003KT 10SM CLR 10/M01 A3036 RMK AO2 T01031011
KE80 170415Z AUTO 00000KT 10SM CLR 09/M01 A3036 RMK AO2 T00931008
KE80 170355Z AUTO 00000KT 10SM CLR 12/M03 A3035 RMK AO2 T01211031
KE80 170335Z AUTO 00000KT 10SM CLR 12/M02 A3035 RMK AO2 T01191025
KE80 170315Z AUTO 00000KT 10SM CLR 12/M03 A3035 RMK AO2 T01241030
KE80 170255Z AUTO 14005KT 10SM CLR 12/M03 A3035 RMK AO2 T01181027
KE80 170235Z AUTO 00000KT 10SM CLR 14/M03 A3035 RMK AO2 T01421035
KE80 170215Z AUTO 00000KT 10SM CLR 15/M03 A3035 RMK AO2 T01521035
KE80 170155Z AUTO 19003KT 10SM CLR 15/M03 A3035 RMK AO2 T01521032
KE80 170135Z AUTO 17003KT 10SM CLR 16/M03 A3034 RMK AO2 T01571032
KE80 170115Z AUTO 17004KT 10SM CLR 16/M03 A3033 RMK AO2 T01601030
KE80 170055Z AUTO 14003KT 10SM CLR 17/M04 A3033 RMK AO2 T01691043
KE80 170035Z AUTO 14003KT 10SM CLR 19/M06 A3033 RMK AO2 T01901057
KE80 170015Z AUTO 00000KT 10SM CLR 20/M05 A3033 RMK AO2 T01991053
KE80 162355Z AUTO 13003KT 10SM CLR 21/M06 A3033 RMK AO2 T02071059 10220 20154
KE80 162335Z AUTO 13004KT 10SM CLR 21/M05 A3033 RMK AO2 T02131049
KE80 162315Z AUTO 12004KT 10SM CLR 22/M05 A3034 RMK AO2 T02171049
KE80 162255Z AUTO 14004KT 10SM CLR 22/M04 A3035 RMK AO2 T02201045
KE80 162235Z AUTO 19003KT 10SM CLR 22/M05 A3035 RMK AO2 T02191048
KE80 162215Z AUTO 00000KT 10SM CLR 22/M05 A3035 RMK AO2 T02191049
KE80 162155Z AUTO 00000KT 10SM CLR 22/M05 A3036 RMK AO2 T02151053
KE80 162135Z AUTO 00000KT 10SM CLR 21/M05 A3036 RMK AO2 T02141049
KE80 162115Z AUTO 13005KT 10SM CLR 21/M04 A3037 RMK AO2 T02111041
KE80 162055Z AUTO 00000KT 10SM CLR 21/M04 A3037 RMK AO2 T02111039
KE80 162035Z AUTO 15003KT 10SM CLR 21/M04 A3039 RMK AO2 T02061041
KE80 162015Z AUTO 00000KT 10SM CLR 20/M04 A3039 RMK AO2 T01971041
KE80 161955Z AUTO 00000KT 10SM CLR 20/M04 A3040 RMK AO2 T01971036
KE80 161935Z AUTO 00000KT 10SM CLR 19/M03 A3042 RMK AO2 T01941034
KE80 161915Z AUTO 00000KT 10SM CLR 19/M04 A3044 RMK AO2 T01861038
KE80 161855Z AUTO 00000KT 10SM CLR 18/M04 A3046 RMK AO2 T01791043
KE80 161835Z AUTO 00000KT 10SM CLR 17/M03 A3046 RMK AO2 T01711035
KE80 161815Z AUTO 00000KT 10SM CLR 17/M03 A3048 RMK AO2 T01651035
KE80 161755Z AUTO 00000KT 10SM CLR 16/M04 A3049 RMK AO2 T01551037 10157 20008
KE80 161735Z AUTO 00000KT 10SM CLR 16/M03 A3050 RMK AO2 T01551032
KE80 161715Z AUTO 00000KT 10SM CLR 14/M04 A3050 RMK AO2 T01371040
KE80 161655Z AUTO 00000KT 10SM CLR 14/M04 A3051 RMK AO2 T01361042
KE80 161635Z AUTO 00000KT 10SM CLR 13/M04 A3051 RMK AO2 T01261042
KE80 161615Z AUTO 00000KT 10SM CLR 12/M04 A3051 RMK AO2 T01171041
KE80 161555Z AUTO 33003KT 10SM CLR 10/M04 A3051 RMK AO2 T01031043